sensor_id;sensor_type;location;lat;lon;timestamp;pressure;altitude;pressure_sealevel;temperature;humidity
41898;BME280;27576;53.366;-1.498;2022-07-21T00:00:40;100622.94;;;20.40;64.36
41898;BME280;27576;53.366;-1.498;2022-07-21T00:03:05;100621.25;;;20.35;64.39
41898;BME280;27576;53.366;-1.498;2022-07-21T00:05:30;100611.81;;;20.27;64.41
41898;BME280;27576;53.366;-1.498;2022-07-21T00:07:56;100629.91;;;20.41;64.20
41898;BME280;27576;53.366;-1.498;2022-07-21T00:10:23;100629.94;;;20.39;64.51
41898;BME280;27576;53.366;-1.498;2022-07-21T00:12:49;100629.25;;;20.32;64.59
41898;BME280;27576;53.366;-1.498;2022-07-21T00:15:16;100634.34;;;20.39;64.80
41898;BME280;27576;53.366;-1.498;2022-07-21T00:17:42;100644.00;;;20.38;64.66
41898;BME280;27576;53.366;-1.498;2022-07-21T00:20:09;100641.44;;;20.35;64.47
41898;BME280;27576;53.366;-1.498;2022-07-21T00:22:35;100631.97;;;20.28;64.49
41898;BME280;27576;53.366;-1.498;2022-07-21T00:25:01;100613.81;;;20.16;64.93
41898;BME280;27576;53.366;-1.498;2022-07-21T00:27:26;100628.63;;;20.20;64.97
41898;BME280;27576;53.366;-1.498;2022-07-21T00:29:52;100640.19;;;20.14;64.89
41898;BME280;27576;53.366;-1.498;2022-07-21T00:32:17;100626.44;;;20.01;65.45
41898;BME280;27576;53.366;-1.498;2022-07-21T00:34:43;100639.59;;;20.01;66.61
41898;BME280;27576;53.366;-1.498;2022-07-21T00:37:10;100644.00;;;19.99;66.54
41898;BME280;27576;53.366;-1.498;2022-07-21T00:39:36;100643.16;;;19.99;66.67
41898;BME280;27576;53.366;-1.498;2022-07-21T00:42:02;100635.41;;;19.93;66.74
41898;BME280;27576;53.366;-1.498;2022-07-21T00:44:27;100644.06;;;19.96;67.19
41898;BME280;27576;53.366;-1.498;2022-07-21T00:46:54;100640.69;;;19.91;67.10
41898;BME280;27576;53.366;-1.498;2022-07-21T00:49:20;100648.56;;;19.93;66.94
41898;BME280;27576;53.366;-1.498;2022-07-21T00:51:46;100648.63;;;19.90;67.40
41898;BME280;27576;53.366;-1.498;2022-07-21T00:54:14;100653.84;;;19.91;67.63
41898;BME280;27576;53.366;-1.498;2022-07-21T00:56:40;100652.06;;;19.92;67.38
41898;BME280;27576;53.366;-1.498;2022-07-21T00:59:06;100656.50;;;19.90;67.68
41898;BME280;27576;53.366;-1.498;2022-07-21T01:01:32;100659.22;;;19.86;67.39
41898;BME280;27576;53.366;-1.498;2022-07-21T01:03:57;100640.22;;;19.72;67.61
41898;BME280;27576;53.366;-1.498;2022-07-21T01:06:24;100609.97;;;19.51;67.70
41898;BME280;27576;53.366;-1.498;2022-07-21T01:08:50;100655.13;;;19.73;68.07
41898;BME280;27576;53.366;-1.498;2022-07-21T01:11:16;100660.31;;;19.75;68.45
41898;BME280;27576;53.366;-1.498;2022-07-21T01:13:43;100659.47;;;19.74;67.94
41898;BME280;27576;53.366;-1.498;2022-07-21T01:16:08;100652.53;;;19.70;68.52
41898;BME280;27576;53.366;-1.498;2022-07-21T01:18:34;100671.69;;;19.77;68.39
41898;BME280;27576;53.366;-1.498;2022-07-21T01:21:03;100669.06;;;19.77;68.23
41898;BME280;27576;53.366;-1.498;2022-07-21T01:23:28;100657.09;;;19.62;68.37
41898;BME280;27576;53.366;-1.498;2022-07-21T01:25:54;100682.38;;;19.69;68.31
41898;BME280;27576;53.366;-1.498;2022-07-21T01:28:20;100644.16;;;19.50;68.30
41898;BME280;27576;53.366;-1.498;2022-07-21T01:30:45;100665.91;;;19.56;68.93
41898;BME280;27576;53.366;-1.498;2022-07-21T01:33:11;100661.66;;;19.51;69.49
41898;BME280;27576;53.366;-1.498;2022-07-21T01:35:36;100651.22;;;19.48;69.03
41898;BME280;27576;53.366;-1.498;2022-07-21T01:38:02;100678.03;;;19.67;69.12
41898;BME280;27576;53.366;-1.498;2022-07-21T01:40:28;100670.25;;;19.59;69.41
41898;BME280;27576;53.366;-1.498;2022-07-21T01:43:12;100672.00;;;19.61;69.21
41898;BME280;27576;53.366;-1.498;2022-07-21T01:45:39;100680.84;;;19.56;69.17
41898;BME280;27576;53.366;-1.498;2022-07-21T01:48:05;100682.59;;;19.55;69.64
41898;BME280;27576;53.366;-1.498;2022-07-21T01:50:31;100685.28;;;19.54;69.86
41898;BME280;27576;53.366;-1.498;2022-07-21T01:52:57;100687.03;;;19.53;70.05
41898;BME280;27576;53.366;-1.498;2022-07-21T01:55:24;100684.47;;;19.49;69.76
41898;BME280;27576;53.366;-1.498;2022-07-21T01:57:50;100681.84;;;19.50;69.84
41898;BME280;27576;53.366;-1.498;2022-07-21T02:00:16;100684.47;;;19.49;70.19
41898;BME280;27576;53.366;-1.498;2022-07-21T02:02:42;100681.97;;;19.43;70.18
41898;BME280;27576;53.366;-1.498;2022-07-21T02:05:08;100688.13;;;19.42;70.52
41898;BME280;27576;53.366;-1.498;2022-07-21T02:07:33;100657.75;;;19.27;70.43
41898;BME280;27576;53.366;-1.498;2022-07-21T02:09:59;100675.28;;;19.26;70.68
41898;BME280;27576;53.366;-1.498;2022-07-21T02:12:24;100678.78;;;19.25;71.26
41898;BME280;27576;53.366;-1.498;2022-07-21T02:14:50;100683.16;;;19.26;70.86
41898;BME280;27576;53.366;-1.498;2022-07-21T02:17:15;100674.56;;;19.17;71.09
41898;BME280;27576;53.366;-1.498;2022-07-21T02:19:41;100673.75;;;19.15;71.19
41898;BME280;27576;53.366;-1.498;2022-07-21T02:22:06;100670.31;;;19.09;71.46
41898;BME280;27576;53.366;-1.498;2022-07-21T02:24:31;100674.84;;;19.03;71.73
41898;BME280;27576;53.366;-1.498;2022-07-21T02:26:57;100691.34;;;19.09;72.07
41898;BME280;27576;53.366;-1.498;2022-07-21T02:29:22;100696.59;;;19.09;72.58
41898;BME280;27576;53.366;-1.498;2022-07-21T02:31:48;100673.34;;;18.88;72.53
41898;BME280;27576;53.366;-1.498;2022-07-21T02:34:13;100671.53;;;18.90;73.11
41898;BME280;27576;53.366;-1.498;2022-07-21T02:36:39;100674.16;;;18.92;72.60
41898;BME280;27576;53.366;-1.498;2022-07-21T02:39:04;100673.28;;;18.91;72.69
41898;BME280;27576;53.366;-1.498;2022-07-21T02:41:30;100702.88;;;19.01;73.29
41898;BME280;27576;53.366;-1.498;2022-07-21T02:43:56;100695.03;;;18.99;73.05
41898;BME280;27576;53.366;-1.498;2022-07-21T02:46:21;100682.06;;;18.88;73.11
41898;BME280;27576;53.366;-1.498;2022-07-21T02:48:47;100692.50;;;18.95;73.36
41898;BME280;27576;53.366;-1.498;2022-07-21T02:51:12;100669.13;;;18.78;73.28
41898;BME280;27576;53.366;-1.498;2022-07-21T02:53:38;100670.91;;;18.76;73.45
41898;BME280;27576;53.366;-1.498;2022-07-21T02:56:03;100677.94;;;18.75;73.80
41898;BME280;27576;53.366;-1.498;2022-07-21T02:58:30;100685.72;;;18.80;73.74
41898;BME280;27576;53.366;-1.498;2022-07-21T03:00:57;100697.88;;;18.85;73.79
41898;BME280;27576;53.366;-1.498;2022-07-21T03:03:24;100669.28;;;18.67;73.89
41898;BME280;27576;53.366;-1.498;2022-07-21T03:05:50;100675.41;;;18.68;74.28
41898;BME280;27576;53.366;-1.498;2022-07-21T03:08:17;100677.06;;;18.73;74.77
41898;BME280;27576;53.366;-1.498;2022-07-21T03:10:43;100676.25;;;18.71;74.65
41898;BME280;27576;53.366;-1.498;2022-07-21T03:13:09;100693.56;;;18.81;74.44
41898;BME280;27576;53.366;-1.498;2022-07-21T03:15:35;100675.41;;;18.66;74.73
41898;BME280;27576;53.366;-1.498;2022-07-21T03:18:01;100620.78;;;18.37;75.00
41898;BME280;27576;53.366;-1.498;2022-07-21T03:20:29;100691.88;;;18.79;74.81
41898;BME280;27576;53.366;-1.498;2022-07-21T03:22:54;100676.22;;;18.70;74.99
41898;BME280;27576;53.366;-1.498;2022-07-21T03:25:20;100685.78;;;18.77;75.08
41898;BME280;27576;53.366;-1.498;2022-07-21T03:27:47;100691.84;;;18.80;75.54
41898;BME280;27576;53.366;-1.498;2022-07-21T03:30:13;100695.28;;;18.84;75.41
41898;BME280;27576;53.366;-1.498;2022-07-21T03:32:39;100691.75;;;18.86;75.61
41898;BME280;27576;53.366;-1.498;2022-07-21T03:35:06;100690.84;;;18.87;74.96
41898;BME280;27576;53.366;-1.498;2022-07-21T03:37:32;100702.22;;;18.88;75.03
41898;BME280;27576;53.366;-1.498;2022-07-21T03:39:58;100678.75;;;18.77;75.01
41898;BME280;27576;53.366;-1.498;2022-07-21T03:42:23;100681.41;;;18.76;74.74
41898;BME280;27576;53.366;-1.498;2022-07-21T03:44:49;100700.59;;;18.81;74.87
41898;BME280;27576;53.366;-1.498;2022-07-21T03:47:14;100695.44;;;18.75;74.95
41898;BME280;27576;53.366;-1.498;2022-07-21T03:49:40;100711.13;;;18.78;75.35
41898;BME280;27576;53.366;-1.498;2022-07-21T03:52:05;100677.31;;;18.55;74.85
41898;BME280;27576;53.366;-1.498;2022-07-21T03:54:31;100701.72;;;18.61;75.45
41898;BME280;27576;53.366;-1.498;2022-07-21T03:56:56;100689.66;;;18.51;75.43
41898;BME280;27576;53.366;-1.498;2022-07-21T03:59:22;100706.16;;;18.59;75.57
41898;BME280;27576;53.366;-1.498;2022-07-21T04:01:47;100720.97;;;18.62;75.69
41898;BME280;27576;53.366;-1.498;2022-07-21T04:04:12;100688.91;;;18.43;75.37
41898;BME280;27576;53.366;-1.498;2022-07-21T04:06:38;100690.63;;;18.44;75.75
41898;BME280;27576;53.366;-1.498;2022-07-21T04:09:03;100694.13;;;18.45;75.73
41898;BME280;27576;53.366;-1.498;2022-07-21T04:11:29;100667.31;;;18.23;75.58
41898;BME280;27576;53.366;-1.498;2022-07-21T04:13:56;100709.06;;;18.39;75.55
41898;BME280;27576;53.366;-1.498;2022-07-21T04:16:21;100724.78;;;18.41;75.78
41898;BME280;27576;53.366;-1.498;2022-07-21T04:18:47;100717.88;;;18.35;76.02
41898;BME280;27576;53.366;-1.498;2022-07-21T04:21:15;100715.25;;;18.34;76.14
41898;BME280;27576;53.366;-1.498;2022-07-21T04:23:41;100734.41;;;18.39;75.96
41898;BME280;27576;53.366;-1.498;2022-07-21T04:26:06;100720.63;;;18.28;76.55
41898;BME280;27576;53.366;-1.498;2022-07-21T04:28:32;100740.66;;;18.32;76.48
41898;BME280;27576;53.366;-1.498;2022-07-21T04:30:57;100721.66;;;18.14;77.14
41898;BME280;27576;53.366;-1.498;2022-07-21T04:33:23;100717.38;;;18.07;76.97
41898;BME280;27576;53.366;-1.498;2022-07-21T04:35:48;100716.50;;;18.07;77.01
41898;BME280;27576;53.366;-1.498;2022-07-21T04:38:14;100722.59;;;18.07;77.30
41898;BME280;27576;53.366;-1.498;2022-07-21T04:40:39;100746.97;;;18.17;76.84
41898;BME280;27576;53.366;-1.498;2022-07-21T04:43:05;100736.56;;;18.12;76.52
41898;BME280;27576;53.366;-1.498;2022-07-21T04:45:31;100763.50;;;18.24;76.88
41898;BME280;27576;53.366;-1.498;2022-07-21T04:47:56;100764.41;;;18.21;76.80
41898;BME280;27576;53.366;-1.498;2022-07-21T04:50:24;100741.97;;;18.00;77.20
41898;BME280;27576;53.366;-1.498;2022-07-21T04:52:50;100761.84;;;18.15;77.73
41898;BME280;27576;53.366;-1.498;2022-07-21T04:55:17;100760.09;;;18.15;77.89
41898;BME280;27576;53.366;-1.498;2022-07-21T04:57:45;100758.38;;;18.16;78.24
41898;BME280;27576;53.366;-1.498;2022-07-21T05:00:16;100767.97;;;18.17;78.85
41898;BME280;27576;53.366;-1.498;2022-07-21T05:02:43;100758.41;;;18.13;79.28
41898;BME280;27576;53.366;-1.498;2022-07-21T05:05:12;100767.97;;;18.15;80.71
41898;BME280;27576;53.366;-1.498;2022-07-21T05:07:38;100745.44;;;18.01;81.08
41898;BME280;27576;53.366;-1.498;2022-07-21T05:10:09;100769.72;;;18.17;82.01
41898;BME280;27576;53.366;-1.498;2022-07-21T05:12:35;100780.19;;;18.20;81.38
41898;BME280;27576;53.366;-1.498;2022-07-21T05:15:02;100774.97;;;18.17;81.70
41898;BME280;27576;53.366;-1.498;2022-07-21T05:17:28;100773.34;;;18.08;81.57
41898;BME280;27576;53.366;-1.498;2022-07-21T05:19:54;100783.78;;;18.09;81.08
41898;BME280;27576;53.366;-1.498;2022-07-21T05:22:19;100770.78;;;18.02;81.61
41898;BME280;27576;53.366;-1.498;2022-07-21T05:24:45;100756.09;;;17.85;82.41
41898;BME280;27576;53.366;-1.498;2022-07-21T05:27:11;100790.00;;;18.04;82.63
41898;BME280;27576;53.366;-1.498;2022-07-21T05:29:36;100770.06;;;17.89;83.12
41898;BME280;27576;53.366;-1.498;2022-07-21T05:32:02;100789.16;;;18.00;83.11
41898;BME280;27576;53.366;-1.498;2022-07-21T05:34:27;100796.97;;;18.05;83.73
41898;BME280;27576;53.366;-1.498;2022-07-21T05:36:53;100797.81;;;18.08;84.04
41898;BME280;27576;53.366;-1.498;2022-07-21T05:39:19;100775.19;;;17.98;83.93
41898;BME280;27576;53.366;-1.498;2022-07-21T05:41:44;100775.19;;;17.98;84.23
41898;BME280;27576;53.366;-1.498;2022-07-21T05:44:10;100802.06;;;18.17;84.16
41898;BME280;27576;53.366;-1.498;2022-07-21T05:46:35;100785.56;;;18.06;84.64
41898;BME280;27576;53.366;-1.498;2022-07-21T05:49:01;100811.66;;;18.20;85.23
41898;BME280;27576;53.366;-1.498;2022-07-21T05:51:26;100818.63;;;18.21;85.40
41898;BME280;27576;53.366;-1.498;2022-07-21T05:53:52;100783.00;;;18.00;85.45
41898;BME280;27576;53.366;-1.498;2022-07-21T05:56:17;100803.81;;;18.15;85.12
41898;BME280;27576;53.366;-1.498;2022-07-21T05:58:42;100799.53;;;18.09;85.86
41898;BME280;27576;53.366;-1.498;2022-07-21T06:01:08;100798.72;;;18.03;85.75
41898;BME280;27576;53.366;-1.498;2022-07-21T06:03:35;100831.81;;;18.16;86.32
41898;BME280;27576;53.366;-1.498;2022-07-21T06:06:00;100820.50;;;18.09;86.62
41898;BME280;27576;53.366;-1.498;2022-07-21T06:08:26;100806.59;;;18.04;86.97
41898;BME280;27576;53.366;-1.498;2022-07-21T06:10:51;100815.22;;;18.12;87.10
41898;BME280;27576;53.366;-1.498;2022-07-21T06:13:16;100817.91;;;18.08;87.38
41898;BME280;27576;53.366;-1.498;2022-07-21T06:15:42;100835.25;;;18.20;87.87
41898;BME280;27576;53.366;-1.498;2022-07-21T06:18:07;100836.13;;;18.19;87.82
41898;BME280;27576;53.366;-1.498;2022-07-21T06:20:33;100835.25;;;18.18;88.29
41898;BME280;27576;53.366;-1.498;2022-07-21T06:22:58;100823.13;;;18.09;88.46
41898;BME280;27576;53.366;-1.498;2022-07-21T06:25:23;100827.47;;;18.10;88.78
41898;BME280;27576;53.366;-1.498;2022-07-21T06:27:49;100839.66;;;18.18;89.37
41898;BME280;27576;53.366;-1.498;2022-07-21T06:30:14;100813.56;;;18.05;89.92
41898;BME280;27576;53.366;-1.498;2022-07-21T06:32:40;100837.06;;;18.14;89.79
41898;BME280;27576;53.366;-1.498;2022-07-21T06:35:06;100840.50;;;18.20;89.64
41898;BME280;27576;53.366;-1.498;2022-07-21T06:37:31;100804.06;;;17.95;90.03
41898;BME280;27576;53.366;-1.498;2022-07-21T06:39:57;100850.09;;;18.22;90.59
41898;BME280;27576;53.366;-1.498;2022-07-21T06:42:23;100829.31;;;18.05;90.17
41898;BME280;27576;53.366;-1.498;2022-07-21T06:44:48;100837.97;;;18.10;90.92
41898;BME280;27576;53.366;-1.498;2022-07-21T06:47:14;100844.91;;;18.14;91.06
41898;BME280;27576;53.366;-1.498;2022-07-21T06:49:39;100839.78;;;18.05;91.71
41898;BME280;27576;53.366;-1.498;2022-07-21T06:52:05;100852.78;;;18.14;92.21
41898;BME280;27576;53.366;-1.498;2022-07-21T06:54:30;100854.53;;;18.14;92.32
41898;BME280;27576;53.366;-1.498;2022-07-21T06:56:55;100884.19;;;18.22;93.20
41898;BME280;27576;53.366;-1.498;2022-07-21T06:59:21;100897.31;;;18.21;92.50
41898;BME280;27576;53.366;-1.498;2022-07-21T07:01:46;100885.16;;;18.13;92.07
41898;BME280;27576;53.366;-1.498;2022-07-21T07:04:12;100868.72;;;17.95;92.55
41898;BME280;27576;53.366;-1.498;2022-07-21T07:06:37;100880.09;;;17.95;93.10
41898;BME280;27576;53.366;-1.498;2022-07-21T07:09:03;100860.09;;;17.83;94.01
41898;BME280;27576;53.366;-1.498;2022-07-21T07:11:29;100887.97;;;17.97;93.39
41898;BME280;27576;53.366;-1.498;2022-07-21T07:13:54;100883.66;;;17.88;93.36
41898;BME280;27576;53.366;-1.498;2022-07-21T07:16:20;100902.84;;;17.93;93.21
41898;BME280;27576;53.366;-1.498;2022-07-21T07:18:45;100894.13;;;17.88;93.64
41898;BME280;27576;53.366;-1.498;2022-07-21T07:21:11;100891.53;;;17.89;93.80
41898;BME280;27576;53.366;-1.498;2022-07-21T07:23:36;100891.50;;;17.91;94.40
41898;BME280;27576;53.366;-1.498;2022-07-21T07:26:02;100893.19;;;17.95;94.28
41898;BME280;27576;53.366;-1.498;2022-07-21T07:28:27;100894.94;;;17.98;94.11
41898;BME280;27576;53.366;-1.498;2022-07-21T07:30:52;100896.63;;;18.02;93.60
41898;BME280;27576;53.366;-1.498;2022-07-21T07:33:18;100888.75;;;18.03;93.66
41898;BME280;27576;53.366;-1.498;2022-07-21T07:35:45;100893.94;;;18.09;93.37
41898;BME280;27576;53.366;-1.498;2022-07-21T07:38:15;100886.06;;;18.12;93.67
41898;BME280;27576;53.366;-1.498;2022-07-21T07:40:41;100887.75;;;18.15;93.32
41898;BME280;27576;53.366;-1.498;2022-07-21T07:43:07;100888.53;;;18.25;94.29
41898;BME280;27576;53.366;-1.498;2022-07-21T07:45:34;100887.59;;;18.30;92.76
41898;BME280;27576;53.366;-1.498;2022-07-21T07:48:00;100888.41;;;18.34;90.96
41898;BME280;27576;53.366;-1.498;2022-07-21T07:50:25;100856.22;;;18.21;91.58
41898;BME280;27576;53.366;-1.498;2022-07-21T07:52:51;100890.03;;;18.47;92.67
41898;BME280;27576;53.366;-1.498;2022-07-21T07:55:16;100874.28;;;18.46;92.59
41898;BME280;27576;53.366;-1.498;2022-07-21T07:57:42;100900.28;;;18.65;92.23
41898;BME280;27576;53.366;-1.498;2022-07-21T08:00:12;100895.91;;;18.71;89.69
41898;BME280;27576;53.366;-1.498;2022-07-21T08:02:38;100896.66;;;18.77;89.67
41898;BME280;27576;53.366;-1.498;2022-07-21T08:05:05;100895.75;;;18.83;88.63
41898;BME280;27576;53.366;-1.498;2022-07-21T08:07:30;100905.31;;;18.85;88.41
41898;BME280;27576;53.366;-1.498;2022-07-21T08:09:56;100906.16;;;18.89;88.55
41898;BME280;27576;53.366;-1.498;2022-07-21T08:12:21;100911.41;;;18.89;87.37
41898;BME280;27576;53.366;-1.498;2022-07-21T08:14:47;100913.09;;;18.93;86.53
41898;BME280;27576;53.366;-1.498;2022-07-21T08:17:12;100879.16;;;18.78;86.98
41898;BME280;27576;53.366;-1.498;2022-07-21T08:19:38;100912.19;;;18.94;86.91
41898;BME280;27576;53.366;-1.498;2022-07-21T08:22:03;100907.84;;;18.95;85.77
41898;BME280;27576;53.366;-1.498;2022-07-21T08:24:29;100880.00;;;18.81;86.76
41898;BME280;27576;53.366;-1.498;2022-07-21T08:26:54;100893.00;;;18.89;86.21
41898;BME280;27576;53.366;-1.498;2022-07-21T08:29:20;100889.44;;;18.95;86.20
41898;BME280;27576;53.366;-1.498;2022-07-21T08:31:45;100888.56;;;18.94;86.66
41898;BME280;27576;53.366;-1.498;2022-07-21T08:34:11;100915.38;;;19.18;86.15
41898;BME280;27576;53.366;-1.498;2022-07-21T08:36:36;100918.81;;;19.23;86.26
41898;BME280;27576;53.366;-1.498;2022-07-21T08:39:02;100911.88;;;19.19;85.61
41898;BME280;27576;53.366;-1.498;2022-07-21T08:41:28;100901.31;;;19.22;86.03
41898;BME280;27576;53.366;-1.498;2022-07-21T08:43:54;100916.97;;;19.28;85.77
41898;BME280;27576;53.366;-1.498;2022-07-21T08:46:22;100915.97;;;19.36;86.18
41898;BME280;27576;53.366;-1.498;2022-07-21T08:48:49;100922.94;;;19.39;86.18
41898;BME280;27576;53.366;-1.498;2022-07-21T08:51:16;100925.53;;;19.42;86.57
41898;BME280;27576;53.366;-1.498;2022-07-21T08:53:45;100926.41;;;19.43;85.70
41898;BME280;27576;53.366;-1.498;2022-07-21T08:56:11;100913.34;;;19.38;86.04
41898;BME280;27576;53.366;-1.498;2022-07-21T08:58:36;100920.28;;;19.42;85.68
41898;BME280;27576;53.366;-1.498;2022-07-21T09:01:02;100922.91;;;19.42;85.14
41898;BME280;27576;53.366;-1.498;2022-07-21T09:03:28;100930.66;;;19.51;85.37
41898;BME280;27576;53.366;-1.498;2022-07-21T09:06:13;100934.13;;;19.53;86.13
41898;BME280;27576;53.366;-1.498;2022-07-21T09:08:43;100913.34;;;19.38;85.75
41898;BME280;27576;53.366;-1.498;2022-07-21T09:14:03;100935.81;;;19.57;84.99
41898;BME280;27576;53.366;-1.498;2022-07-21T09:18:59;100942.78;;;19.61;84.82
41898;BME280;27576;53.366;-1.498;2022-07-21T09:21:25;100935.78;;;19.62;83.95
41898;BME280;27576;53.366;-1.498;2022-07-21T09:23:50;100936.69;;;19.58;82.37
41898;BME280;27576;53.366;-1.498;2022-07-21T09:26:16;100929.81;;;19.49;82.91
41898;BME280;27576;53.366;-1.498;2022-07-21T09:28:42;100933.34;;;19.47;83.65
41898;BME280;27576;53.366;-1.498;2022-07-21T09:31:09;100937.63;;;19.52;83.89
41898;BME280;27576;53.366;-1.498;2022-07-21T09:33:45;100948.09;;;19.55;83.41
41898;BME280;27576;53.366;-1.498;2022-07-21T09:36:15;100939.38;;;19.53;83.60
41898;BME280;27576;53.366;-1.498;2022-07-21T09:38:50;100916.75;;;19.43;84.59
41898;BME280;27576;53.366;-1.498;2022-07-21T09:41:26;100940.22;;;19.55;84.42
41898;BME280;27576;53.366;-1.498;2022-07-21T09:43:54;100922.03;;;19.42;84.08
41898;BME280;27576;53.366;-1.498;2022-07-21T09:46:24;100948.22;;;19.48;83.49
41898;BME280;27576;53.366;-1.498;2022-07-21T09:48:56;100946.50;;;19.45;83.32
41898;BME280;27576;53.366;-1.498;2022-07-21T09:51:26;100938.78;;;19.34;84.20
41898;BME280;27576;53.366;-1.498;2022-07-21T09:54:12;100961.50;;;19.37;83.48
41898;BME280;27576;53.366;-1.498;2022-07-21T09:56:43;100958.09;;;19.32;83.99
41898;BME280;27576;53.366;-1.498;2022-07-21T09:59:10;100955.47;;;19.32;84.99
41898;BME280;27576;53.366;-1.498;2022-07-21T10:01:37;100956.31;;;19.32;85.16
41898;BME280;27576;53.366;-1.498;2022-07-21T10:04:03;100947.66;;;19.27;85.64
41898;BME280;27576;53.366;-1.498;2022-07-21T10:06:39;100953.69;;;19.34;84.65
41898;BME280;27576;53.366;-1.498;2022-07-21T10:09:07;100951.09;;;19.31;84.82
41898;BME280;27576;53.366;-1.498;2022-07-21T10:11:33;100940.75;;;19.22;85.58
41898;BME280;27576;53.366;-1.498;2022-07-21T10:13:58;100919.75;;;19.19;83.15
41898;BME280;27576;53.366;-1.498;2022-07-21T10:16:25;100933.66;;;19.27;84.31
41898;BME280;27576;53.366;-1.498;2022-07-21T10:19:21;100958.66;;;19.52;85.51
41898;BME280;27576;53.366;-1.498;2022-07-21T10:22:13;100960.31;;;19.63;85.17
41898;BME280;27576;53.366;-1.498;2022-07-21T10:24:45;100960.19;;;19.69;84.64
41898;BME280;27576;53.366;-1.498;2022-07-21T10:27:12;100963.50;;;19.80;83.46
41898;BME280;27576;53.366;-1.498;2022-07-21T10:32:14;100958.16;;;19.86;81.59
41898;BME280;27576;53.366;-1.498;2022-07-21T10:34:40;100961.69;;;19.85;80.42
41898;BME280;27576;53.366;-1.498;2022-07-21T10:37:05;100947.66;;;19.86;79.99
41898;BME280;27576;53.366;-1.498;2022-07-21T10:39:32;100946.00;;;19.79;81.06
41898;BME280;27576;53.366;-1.498;2022-07-21T10:41:58;100931.25;;;19.69;81.26
41898;BME280;27576;53.366;-1.498;2022-07-21T10:47:09;100962.53;;;19.89;81.26
41898;BME280;27576;53.366;-1.498;2022-07-21T10:49:58;100964.28;;;19.86;81.10
41898;BME280;27576;53.366;-1.498;2022-07-21T10:57:40;100955.75;;;19.74;80.62
41898;BME280;27576;53.366;-1.498;2022-07-21T11:00:24;100973.25;;;19.75;81.82
41898;BME280;27576;53.366;-1.498;2022-07-21T11:03:01;100964.66;;;19.64;80.82
41898;BME280;27576;53.366;-1.498;2022-07-21T11:05:32;100968.09;;;19.67;81.08
41898;BME280;27576;53.366;-1.498;2022-07-21T11:08:18;100968.19;;;19.63;78.10
41898;BME280;27576;53.366;-1.498;2022-07-21T11:10:50;100960.34;;;19.58;79.75
41898;BME280;27576;53.366;-1.498;2022-07-21T11:13:17;100935.16;;;19.43;79.92
41898;BME280;27576;53.366;-1.498;2022-07-21T11:16:00;100943.00;;;19.45;80.37
41898;BME280;27576;53.366;-1.498;2022-07-21T11:18:28;100946.53;;;19.44;80.52
41898;BME280;27576;53.366;-1.498;2022-07-21T11:21:08;100975.22;;;19.62;80.17
41898;BME280;27576;53.366;-1.498;2022-07-21T11:26:07;100969.16;;;19.54;79.91
41898;BME280;27576;53.366;-1.498;2022-07-21T11:28:33;100946.56;;;19.42;80.74
41898;BME280;27576;53.366;-1.498;2022-07-21T11:31:13;100947.44;;;19.41;80.72
41898;BME280;27576;53.366;-1.498;2022-07-21T11:33:42;100970.84;;;19.58;81.28
41898;BME280;27576;53.366;-1.498;2022-07-21T11:36:08;100962.19;;;19.51;79.93
41898;BME280;27576;53.366;-1.498;2022-07-21T11:38:34;100979.56;;;19.60;80.00
41898;BME280;27576;53.366;-1.498;2022-07-21T11:41:14;100956.13;;;19.46;79.32
41898;BME280;27576;53.366;-1.498;2022-07-21T11:43:42;100977.84;;;19.59;80.35
41898;BME280;27576;53.366;-1.498;2022-07-21T11:46:07;100975.25;;;19.57;80.04
41898;BME280;27576;53.366;-1.498;2022-07-21T11:48:33;100973.59;;;19.50;80.97
41898;BME280;27576;53.366;-1.498;2022-07-21T11:51:00;100977.06;;;19.52;80.60
41898;BME280;27576;53.366;-1.498;2022-07-21T11:53:26;100976.16;;;19.55;79.72
41898;BME280;27576;53.366;-1.498;2022-07-21T11:55:51;100977.91;;;19.54;79.95
41898;BME280;27576;53.366;-1.498;2022-07-21T11:58:19;100978.75;;;19.58;80.00
41898;BME280;27576;53.366;-1.498;2022-07-21T12:00:44;100985.75;;;19.57;79.94
41898;BME280;27576;53.366;-1.498;2022-07-21T12:03:12;100965.59;;;19.56;79.77
41898;BME280;27576;53.366;-1.498;2022-07-21T12:05:39;100948.25;;;19.46;79.78
41898;BME280;27576;53.366;-1.498;2022-07-21T12:08:05;100969.91;;;19.64;79.87
41898;BME280;27576;53.366;-1.498;2022-07-21T12:10:30;100963.91;;;19.54;79.45
41898;BME280;27576;53.366;-1.498;2022-07-21T12:15:33;100983.06;;;19.60;77.65
41898;BME280;27576;53.366;-1.498;2022-07-21T12:18:18;100975.16;;;19.64;78.58
41898;BME280;27576;53.366;-1.498;2022-07-21T12:20:45;100964.66;;;19.65;77.81
41898;BME280;27576;53.366;-1.498;2022-07-21T12:23:26;100961.13;;;19.65;74.42
41898;BME280;27576;53.366;-1.498;2022-07-21T12:25:53;100974.09;;;19.77;74.18
41898;BME280;27576;53.366;-1.498;2022-07-21T12:28:20;100981.09;;;19.78;73.26
41898;BME280;27576;53.366;-1.498;2022-07-21T12:30:48;100985.44;;;19.79;73.65
41898;BME280;27576;53.366;-1.498;2022-07-21T12:33:27;100978.44;;;19.81;73.85
41898;BME280;27576;53.366;-1.498;2022-07-21T12:36:01;100978.44;;;19.81;74.63
41898;BME280;27576;53.366;-1.498;2022-07-21T12:38:39;100944.53;;;19.61;74.93
41898;BME280;27576;53.366;-1.498;2022-07-21T12:41:05;100980.13;;;19.83;75.78
41898;BME280;27576;53.366;-1.498;2022-07-21T12:43:32;100958.38;;;19.72;75.32
41898;BME280;27576;53.366;-1.498;2022-07-21T12:46:18;100977.41;;;19.88;75.72
41898;BME280;27576;53.366;-1.498;2022-07-21T12:48:49;100954.78;;;19.78;75.16
41898;BME280;27576;53.366;-1.498;2022-07-21T12:51:21;100953.13;;;19.74;76.89
41898;BME280;27576;53.366;-1.498;2022-07-21T12:53:48;100962.59;;;19.82;76.31
41898;BME280;27576;53.366;-1.498;2022-07-21T12:56:18;100974.78;;;19.90;75.54
41898;BME280;27576;53.366;-1.498;2022-07-21T12:58:44;100978.31;;;19.89;74.32
41898;BME280;27576;53.366;-1.498;2022-07-21T13:01:11;100979.22;;;19.86;73.62